sensor_id;sensor_type;location;lat;lon;timestamp;pressure;altitude;pressure_sealevel;temperature;humidity
62926;BME280;55732;52.248;-0.844;2023-04-26T00:00:42;101085.93;;;5.77;61.74
62926;BME280;55732;52.248;-0.844;2023-04-26T00:03:07;101078.16;;;5.74;61.50
62926;BME280;55732;52.248;-0.844;2023-04-26T00:05:33;101076.02;;;5.72;61.77
62926;BME280;55732;52.248;-0.844;2023-04-26T00:08:00;101074.20;;;5.70;61.73
62926;BME280;55732;52.248;-0.844;2023-04-26T00:10:25;101074.67;;;5.68;61.82
62926;BME280;55732;52.248;-0.844;2023-04-26T00:12:51;101070.95;;;5.65;61.82
62926;BME280;55732;52.248;-0.844;2023-04-26T00:15:17;101066.70;;;5.63;61.89
62926;BME280;55732;52.248;-0.844;2023-04-26T00:17:42;101065.10;;;5.62;61.83
62926;BME280;55732;52.248;-0.844;2023-04-26T00:20:09;101064.34;;;5.60;61.75
62926;BME280;55732;52.248;-0.844;2023-04-26T00:22:37;101062.72;;;5.58;62.16
62926;BME280;55732;52.248;-0.844;2023-04-26T00:25:02;101063.19;;;5.56;62.12
62926;BME280;55732;52.248;-0.844;2023-04-26T00:27:28;101061.73;;;5.54;62.25
62926;BME280;55732;52.248;-0.844;2023-04-26T00:29:53;101056.91;;;5.50;61.97
62926;BME280;55732;52.248;-0.844;2023-04-26T00:32:19;101060.16;;;5.48;61.71
62926;BME280;55732;52.248;-0.844;2023-04-26T00:34:44;101056.63;;;5.46;61.64
62926;BME280;55732;52.248;-0.844;2023-04-26T00:37:09;101054.30;;;5.44;61.84
62926;BME280;55732;52.248;-0.844;2023-04-26T00:39:35;101058.56;;;5.40;61.98
62926;BME280;55732;52.248;-0.844;2023-04-26T00:42:00;101057.68;;;5.34;62.35
62926;BME280;55732;52.248;-0.844;2023-04-26T00:44:26;101052.32;;;5.29;62.43
62926;BME280;55732;52.248;-0.844;2023-04-26T00:46:52;101054.52;;;5.26;62.31
62926;BME280;55732;52.248;-0.844;2023-04-26T00:49:20;101050.98;;;5.25;62.46
62926;BME280;55732;52.248;-0.844;2023-04-26T00:51:47;101046.20;;;5.23;62.58
62926;BME280;55732;52.248;-0.844;2023-04-26T00:54:13;101054.20;;;5.22;62.65
62926;BME280;55732;52.248;-0.844;2023-04-26T00:56:41;101052.57;;;5.19;62.72
62926;BME280;55732;52.248;-0.844;2023-04-26T00:59:07;101051.64;;;5.17;62.66
62926;BME280;55732;52.248;-0.844;2023-04-26T01:01:33;101054.90;;;5.15;62.94
62926;BME280;55732;52.248;-0.844;2023-04-26T01:03:59;101052.23;;;5.14;63.21
62926;BME280;55732;52.248;-0.844;2023-04-26T01:06:32;101045.00;;;5.11;63.36
62926;BME280;55732;52.248;-0.844;2023-04-26T01:08:59;101041.11;;;5.09;63.47
62926;BME280;55732;52.248;-0.844;2023-04-26T01:11:26;101038.69;;;5.10;63.35
62926;BME280;55732;52.248;-0.844;2023-04-26T01:13:52;101036.06;;;5.10;63.55
62926;BME280;55732;52.248;-0.844;2023-04-26T01:16:18;101032.79;;;5.11;63.64
62926;BME280;55732;52.248;-0.844;2023-04-26T01:18:53;101036.48;;;5.12;63.79
62926;BME280;55732;52.248;-0.844;2023-04-26T01:21:22;101031.30;;;5.14;64.03
62926;BME280;55732;52.248;-0.844;2023-04-26T01:23:49;101027.34;;;5.16;64.22
62926;BME280;55732;52.248;-0.844;2023-04-26T01:26:14;101025.95;;;5.16;64.11
62926;BME280;55732;52.248;-0.844;2023-04-26T01:28:41;101028.94;;;5.17;64.04
62926;BME280;55732;52.248;-0.844;2023-04-26T01:31:06;101032.64;;;5.18;64.18
62926;BME280;55732;52.248;-0.844;2023-04-26T01:33:32;101034.91;;;5.18;64.21
62926;BME280;55732;52.248;-0.844;2023-04-26T01:35:57;101035.40;;;5.17;64.25
62926;BME280;55732;52.248;-0.844;2023-04-26T01:38:22;101036.66;;;5.18;64.52
62926;BME280;55732;52.248;-0.844;2023-04-26T01:40:48;101031.78;;;5.18;64.48
62926;BME280;55732;52.248;-0.844;2023-04-26T01:43:13;101027.41;;;5.18;64.44
62926;BME280;55732;52.248;-0.844;2023-04-26T01:45:40;101025.81;;;5.17;64.55
62926;BME280;55732;52.248;-0.844;2023-04-26T01:48:06;101022.13;;;5.16;64.64
62926;BME280;55732;52.248;-0.844;2023-04-26T01:50:31;101019.11;;;5.15;64.76
62926;BME280;55732;52.248;-0.844;2023-04-26T01:52:57;101019.39;;;5.13;64.57
62926;BME280;55732;52.248;-0.844;2023-04-26T01:55:22;101021.07;;;5.11;64.50
62926;BME280;55732;52.248;-0.844;2023-04-26T01:57:48;101022.10;;;5.10;64.75
62926;BME280;55732;52.248;-0.844;2023-04-26T02:00:13;101024.39;;;5.11;64.77
62926;BME280;55732;52.248;-0.844;2023-04-26T02:02:39;101026.85;;;5.11;64.79
62926;BME280;55732;52.248;-0.844;2023-04-26T02:05:05;101027.71;;;5.11;64.78
62926;BME280;55732;52.248;-0.844;2023-04-26T02:07:30;101030.34;;;5.11;64.75
62926;BME280;55732;52.248;-0.844;2023-04-26T02:09:55;101024.09;;;5.12;64.97
62926;BME280;55732;52.248;-0.844;2023-04-26T02:12:21;101022.56;;;5.14;65.01
62926;BME280;55732;52.248;-0.844;2023-04-26T02:14:46;101015.96;;;5.15;65.21
62926;BME280;55732;52.248;-0.844;2023-04-26T02:17:12;101017.19;;;5.15;65.39
62926;BME280;55732;52.248;-0.844;2023-04-26T02:19:38;101021.52;;;5.13;65.39
62926;BME280;55732;52.248;-0.844;2023-04-26T02:22:04;101017.65;;;5.13;65.39
62926;BME280;55732;52.248;-0.844;2023-04-26T02:24:30;101021.50;;;5.13;65.48
62926;BME280;55732;52.248;-0.844;2023-04-26T02:26:56;101021.30;;;5.12;65.65
62926;BME280;55732;52.248;-0.844;2023-04-26T02:29:24;101020.02;;;5.11;65.78
62926;BME280;55732;52.248;-0.844;2023-04-26T02:31:50;101018.57;;;5.08;65.77
62926;BME280;55732;52.248;-0.844;2023-04-26T02:34:15;101022.30;;;5.04;65.77
62926;BME280;55732;52.248;-0.844;2023-04-26T02:36:41;101014.98;;;4.99;65.84
62926;BME280;55732;52.248;-0.844;2023-04-26T02:39:06;101017.98;;;4.93;66.04
62926;BME280;55732;52.248;-0.844;2023-04-26T02:41:32;101013.98;;;4.88;65.95
62926;BME280;55732;52.248;-0.844;2023-04-26T02:43:57;101013.14;;;4.82;66.14
62926;BME280;55732;52.248;-0.844;2023-04-26T02:46:23;101010.19;;;4.77;66.38
62926;BME280;55732;52.248;-0.844;2023-04-26T02:48:48;101014.91;;;4.71;66.42
62926;BME280;55732;52.248;-0.844;2023-04-26T02:51:14;101014.61;;;4.67;66.47
62926;BME280;55732;52.248;-0.844;2023-04-26T02:53:40;101007.14;;;4.63;66.62
62926;BME280;55732;52.248;-0.844;2023-04-26T02:56:05;101002.48;;;4.58;66.71
62926;BME280;55732;52.248;-0.844;2023-04-26T02:58:31;101007.20;;;4.53;66.69
62926;BME280;55732;52.248;-0.844;2023-04-26T03:00:57;101013.33;;;4.47;66.96
62926;BME280;55732;52.248;-0.844;2023-04-26T03:03:24;101015.67;;;4.45;67.08
62926;BME280;55732;52.248;-0.844;2023-04-26T03:05:49;101015.75;;;4.42;67.25
62926;BME280;55732;52.248;-0.844;2023-04-26T03:08:15;101017.80;;;4.40;67.54
62926;BME280;55732;52.248;-0.844;2023-04-26T03:10:40;101011.55;;;4.41;67.63
62926;BME280;55732;52.248;-0.844;2023-04-26T03:13:06;101011.41;;;4.42;67.80
62926;BME280;55732;52.248;-0.844;2023-04-26T03:15:31;101016.45;;;4.42;67.57
62926;BME280;55732;52.248;-0.844;2023-04-26T03:17:57;101013.79;;;4.40;67.96
62926;BME280;55732;52.248;-0.844;2023-04-26T03:20:23;101011.66;;;4.39;67.93
62926;BME280;55732;52.248;-0.844;2023-04-26T03:22:48;101012.88;;;4.39;68.10
62926;BME280;55732;52.248;-0.844;2023-04-26T03:25:14;101015.86;;;4.40;68.35
62926;BME280;55732;52.248;-0.844;2023-04-26T03:27:40;101018.91;;;4.42;68.56
62926;BME280;55732;52.248;-0.844;2023-04-26T03:30:06;101014.85;;;4.46;68.57
62926;BME280;55732;52.248;-0.844;2023-04-26T03:32:32;101010.46;;;4.51;68.70
62926;BME280;55732;52.248;-0.844;2023-04-26T03:34:57;101001.40;;;4.57;68.38
62926;BME280;55732;52.248;-0.844;2023-04-26T03:37:23;100999.98;;;4.63;68.41
62926;BME280;55732;52.248;-0.844;2023-04-26T03:39:48;101000.66;;;4.67;68.39
62926;BME280;55732;52.248;-0.844;2023-04-26T03:42:15;100997.29;;;4.71;68.46
62926;BME280;55732;52.248;-0.844;2023-04-26T03:44:40;100997.05;;;4.76;68.30
62926;BME280;55732;52.248;-0.844;2023-04-26T03:47:05;100994.41;;;4.80;68.33
62926;BME280;55732;52.248;-0.844;2023-04-26T03:49:31;100993.80;;;4.84;68.25
62926;BME280;55732;52.248;-0.844;2023-04-26T03:51:56;100995.80;;;4.87;68.37
62926;BME280;55732;52.248;-0.844;2023-04-26T03:54:22;100990.84;;;4.90;68.40
62926;BME280;55732;52.248;-0.844;2023-04-26T03:56:47;100987.45;;;4.93;68.50
62926;BME280;55732;52.248;-0.844;2023-04-26T03:59:12;100985.45;;;4.97;68.39
62926;BME280;55732;52.248;-0.844;2023-04-26T04:01:38;100980.48;;;5.00;68.24
62926;BME280;55732;52.248;-0.844;2023-04-26T04:04:04;100979.58;;;5.05;68.08
62926;BME280;55732;52.248;-0.844;2023-04-26T04:06:29;100981.04;;;5.07;67.97
62926;BME280;55732;52.248;-0.844;2023-04-26T04:08:55;100980.93;;;5.11;68.05
62926;BME280;55732;52.248;-0.844;2023-04-26T04:11:20;100987.07;;;5.12;68.22
62926;BME280;55732;52.248;-0.844;2023-04-26T04:13:46;100987.08;;;5.12;68.46
62926;BME280;55732;52.248;-0.844;2023-04-26T04:16:11;100990.82;;;5.14;68.51
62926;BME280;55732;52.248;-0.844;2023-04-26T04:18:36;100988.45;;;5.17;68.42
62926;BME280;55732;52.248;-0.844;2023-04-26T04:21:02;100979.79;;;5.20;68.19
62926;BME280;55732;52.248;-0.844;2023-04-26T04:23:27;100975.67;;;5.23;68.31
62926;BME280;55732;52.248;-0.844;2023-04-26T04:25:53;100975.23;;;5.26;68.37
62926;BME280;55732;52.248;-0.844;2023-04-26T04:28:18;100979.88;;;5.29;68.30
62926;BME280;55732;52.248;-0.844;2023-04-26T04:30:43;100974.52;;;5.32;68.37
62926;BME280;55732;52.248;-0.844;2023-04-26T04:33:11;100970.77;;;5.35;68.39
62926;BME280;55732;52.248;-0.844;2023-04-26T04:35:37;100973.85;;;5.39;68.31
62926;BME280;55732;52.248;-0.844;2023-04-26T04:38:02;100973.40;;;5.42;68.17
62926;BME280;55732;52.248;-0.844;2023-04-26T04:40:28;100974.64;;;5.43;68.14
62926;BME280;55732;52.248;-0.844;2023-04-26T04:42:54;100971.85;;;5.44;68.08
62926;BME280;55732;52.248;-0.844;2023-04-26T04:45:20;100969.07;;;5.44;68.13
62926;BME280;55732;52.248;-0.844;2023-04-26T04:47:46;100967.86;;;5.44;68.28
62926;BME280;55732;52.248;-0.844;2023-04-26T04:50:12;100965.06;;;5.44;68.25
62926;BME280;55732;52.248;-0.844;2023-04-26T04:52:38;100966.10;;;5.44;68.28
62926;BME280;55732;52.248;-0.844;2023-04-26T04:55:04;100967.48;;;5.44;68.43
62926;BME280;55732;52.248;-0.844;2023-04-26T04:57:30;100972.91;;;5.44;68.50
62926;BME280;55732;52.248;-0.844;2023-04-26T04:59:56;100972.95;;;5.45;68.50
62926;BME280;55732;52.248;-0.844;2023-04-26T05:02:22;100970.88;;;5.46;68.47
62926;BME280;55732;52.248;-0.844;2023-04-26T05:04:47;100972.11;;;5.47;68.55
62926;BME280;55732;52.248;-0.844;2023-04-26T05:07:13;100976.01;;;5.49;68.67
62926;BME280;55732;52.248;-0.844;2023-04-26T05:09:41;100972.95;;;5.51;68.85
62926;BME280;55732;52.248;-0.844;2023-04-26T05:12:06;100974.75;;;5.54;69.09
62926;BME280;55732;52.248;-0.844;2023-04-26T05:14:32;100974.45;;;5.56;69.16
62926;BME280;55732;52.248;-0.844;2023-04-26T05:16:57;100974.70;;;5.59;68.89
62926;BME280;55732;52.248;-0.844;2023-04-26T05:19:22;100976.31;;;5.61;68.96
62926;BME280;55732;52.248;-0.844;2023-04-26T05:21:48;100972.34;;;5.62;69.01
62926;BME280;55732;52.248;-0.844;2023-04-26T05:24:14;100971.01;;;5.64;68.86
62926;BME280;55732;52.248;-0.844;2023-04-26T05:26:39;100974.02;;;5.66;69.04
62926;BME280;55732;52.248;-0.844;2023-04-26T05:29:05;100981.08;;;5.69;68.99
62926;BME280;55732;52.248;-0.844;2023-04-26T05:31:30;100984.65;;;5.72;69.07
62926;BME280;55732;52.248;-0.844;2023-04-26T05:33:56;100989.65;;;5.76;69.17
62926;BME280;55732;52.248;-0.844;2023-04-26T05:36:21;100993.55;;;5.79;69.00
62926;BME280;55732;52.248;-0.844;2023-04-26T05:38:47;100995.05;;;5.83;69.13
62926;BME280;55732;52.248;-0.844;2023-04-26T05:41:12;101000.09;;;5.89;69.10
62926;BME280;55732;52.248;-0.844;2023-04-26T05:43:37;100995.81;;;5.92;68.88
62926;BME280;55732;52.248;-0.844;2023-04-26T05:46:03;100991.69;;;5.95;69.03
62926;BME280;55732;52.248;-0.844;2023-04-26T05:48:28;100995.79;;;5.98;69.01
62926;BME280;55732;52.248;-0.844;2023-04-26T05:50:54;100990.77;;;5.99;69.00
62926;BME280;55732;52.248;-0.844;2023-04-26T05:53:20;100992.17;;;6.00;69.11
62926;BME280;55732;52.248;-0.844;2023-04-26T05:55:45;100995.36;;;6.02;69.19
62926;BME280;55732;52.248;-0.844;2023-04-26T05:58:11;100989.11;;;6.04;69.05
62926;BME280;55732;52.248;-0.844;2023-04-26T06:00:37;100995.14;;;6.07;69.05
62926;BME280;55732;52.248;-0.844;2023-04-26T06:03:05;100994.64;;;6.08;68.94
62926;BME280;55732;52.248;-0.844;2023-04-26T06:05:31;100991.58;;;6.11;69.07
62926;BME280;55732;52.248;-0.844;2023-04-26T06:07:57;100988.28;;;6.13;69.13
62926;BME280;55732;52.248;-0.844;2023-04-26T06:10:22;100989.57;;;6.16;69.04
62926;BME280;55732;52.248;-0.844;2023-04-26T06:12:48;100990.20;;;6.21;69.04
62926;BME280;55732;52.248;-0.844;2023-04-26T06:15:13;100999.39;;;6.24;68.93
62926;BME280;55732;52.248;-0.844;2023-04-26T06:17:39;100999.58;;;6.26;68.87
62926;BME280;55732;52.248;-0.844;2023-04-26T06:20:06;101000.35;;;6.29;68.82
62926;BME280;55732;52.248;-0.844;2023-04-26T06:22:34;101002.02;;;6.32;68.76
62926;BME280;55732;52.248;-0.844;2023-04-26T06:25:00;101003.15;;;6.36;68.75
62926;BME280;55732;52.248;-0.844;2023-04-26T06:27:26;101003.13;;;6.43;68.72
62926;BME280;55732;52.248;-0.844;2023-04-26T06:29:51;100998.89;;;6.50;68.77
62926;BME280;55732;52.248;-0.844;2023-04-26T06:32:16;101000.48;;;6.58;68.67
62926;BME280;55732;52.248;-0.844;2023-04-26T06:34:42;100999.25;;;6.66;68.45
62926;BME280;55732;52.248;-0.844;2023-04-26T06:37:10;101003.61;;;6.74;68.28
62926;BME280;55732;52.248;-0.844;2023-04-26T06:39:35;101009.39;;;6.82;68.02
62926;BME280;55732;52.248;-0.844;2023-04-26T06:42:03;101011.28;;;6.89;67.87
62926;BME280;55732;52.248;-0.844;2023-04-26T06:44:28;101010.41;;;6.98;67.69
62926;BME280;55732;52.248;-0.844;2023-04-26T06:46:55;101015.74;;;7.10;67.24
62926;BME280;55732;52.248;-0.844;2023-04-26T06:49:21;101015.80;;;7.22;67.27
62926;BME280;55732;52.248;-0.844;2023-04-26T06:51:46;101019.00;;;7.35;67.09
62926;BME280;55732;52.248;-0.844;2023-04-26T06:54:12;101022.89;;;7.46;66.78
62926;BME280;55732;52.248;-0.844;2023-04-26T06:56:37;101021.75;;;7.59;66.75
62926;BME280;55732;52.248;-0.844;2023-04-26T06:59:04;101019.73;;;7.74;66.21
62926;BME280;55732;52.248;-0.844;2023-04-26T07:01:33;101014.83;;;7.85;66.20
62926;BME280;55732;52.248;-0.844;2023-04-26T07:04:00;101007.70;;;7.99;66.10
62926;BME280;55732;52.248;-0.844;2023-04-26T07:06:27;101010.84;;;8.10;65.61
62926;BME280;55732;52.248;-0.844;2023-04-26T07:08:53;101009.95;;;8.19;65.45
62926;BME280;55732;52.248;-0.844;2023-04-26T07:11:19;101006.38;;;8.37;64.98
62926;BME280;55732;52.248;-0.844;2023-04-26T07:13:45;101002.29;;;8.58;64.36
62926;BME280;55732;52.248;-0.844;2023-04-26T07:16:10;101006.84;;;8.84;64.08
62926;BME280;55732;52.248;-0.844;2023-04-26T07:18:37;101008.77;;;9.14;63.45
62926;BME280;55732;52.248;-0.844;2023-04-26T07:21:02;101003.64;;;9.43;62.73
62926;BME280;55732;52.248;-0.844;2023-04-26T07:23:28;100992.84;;;9.71;61.98
62926;BME280;55732;52.248;-0.844;2023-04-26T07:25:54;100992.13;;;9.91;61.40
62926;BME280;55732;52.248;-0.844;2023-04-26T07:28:19;100989.14;;;10.14;60.82
62926;BME280;55732;52.248;-0.844;2023-04-26T07:30:45;100987.00;;;10.32;60.21
62926;BME280;55732;52.248;-0.844;2023-04-26T07:33:10;100984.09;;;10.48;59.83
62926;BME280;55732;52.248;-0.844;2023-04-26T07:35:35;100985.57;;;10.61;59.54
62926;BME280;55732;52.248;-0.844;2023-04-26T07:38:01;100981.23;;;10.72;59.35
62926;BME280;55732;52.248;-0.844;2023-04-26T07:40:26;100985.68;;;10.82;59.06
62926;BME280;55732;52.248;-0.844;2023-04-26T07:42:53;100981.81;;;10.84;59.05
62926;BME280;55732;52.248;-0.844;2023-04-26T07:45:19;100977.04;;;10.81;58.91
62926;BME280;55732;52.248;-0.844;2023-04-26T07:47:45;100977.05;;;10.83;58.88
62926;BME280;55732;52.248;-0.844;2023-04-26T07:50:10;100978.12;;;10.84;58.68
62926;BME280;55732;52.248;-0.844;2023-04-26T07:52:36;100978.64;;;10.83;58.75
62926;BME280;55732;52.248;-0.844;2023-04-26T07:55:02;100975.27;;;10.79;58.57
62926;BME280;55732;52.248;-0.844;2023-04-26T07:57:27;100976.30;;;10.74;58.49
62926;BME280;55732;52.248;-0.844;2023-04-26T07:59:53;100972.61;;;10.72;58.52
62926;BME280;55732;52.248;-0.844;2023-04-26T08:02:18;100973.98;;;10.66;57.60
62926;BME280;55732;52.248;-0.844;2023-04-26T08:04:48;100977.08;;;10.55;57.65
62926;BME280;55732;52.248;-0.844;2023-04-26T08:07:15;100980.95;;;10.55;57.81
62926;BME280;55732;52.248;-0.844;2023-04-26T08:09:48;100982.77;;;10.64;57.47
62926;BME280;55732;52.248;-0.844;2023-04-26T08:12:14;100990.05;;;10.77;57.06
62926;BME280;55732;52.248;-0.844;2023-04-26T08:14:39;100989.75;;;10.90;56.83
62926;BME280;55732;52.248;-0.844;2023-04-26T08:17:06;100992.47;;;11.10;56.57
62926;BME280;55732;52.248;-0.844;2023-04-26T08:19:34;100986.91;;;11.43;55.66
62926;BME280;55732;52.248;-0.844;2023-04-26T08:22:01;100987.32;;;11.84;54.67
62926;BME280;55732;52.248;-0.844;2023-04-26T08:24:27;100991.86;;;12.33;54.05
62926;BME280;55732;52.248;-0.844;2023-04-26T08:26:52;100993.05;;;13.84;51.77
62926;BME280;55732;52.248;-0.844;2023-04-26T08:29:18;100980.52;;;16.93;46.67
62926;BME280;55732;52.248;-0.844;2023-04-26T08:31:43;100972.07;;;20.05;41.38
62926;BME280;55732;52.248;-0.844;2023-04-26T08:34:08;100970.80;;;22.18;37.33
62926;BME280;55732;52.248;-0.844;2023-04-26T08:36:36;100962.61;;;23.50;35.07
62926;BME280;55732;52.248;-0.844;2023-04-26T08:39:02;100963.46;;;25.00;33.13
62926;BME280;55732;52.248;-0.844;2023-04-26T08:41:28;100958.61;;;25.80;31.14
62926;BME280;55732;52.248;-0.844;2023-04-26T08:43:55;100957.05;;;26.34;29.35
62926;BME280;55732;52.248;-0.844;2023-04-26T08:46:23;100956.58;;;26.76;28.82
62926;BME280;55732;52.248;-0.844;2023-04-26T08:49:12;100955.96;;;26.57;28.39
62926;BME280;55732;52.248;-0.844;2023-04-26T08:51:44;100956.85;;;25.89;28.63
62926;BME280;55732;52.248;-0.844;2023-04-26T08:54:10;100957.63;;;25.08;29.32
62926;BME280;55732;52.248;-0.844;2023-04-26T08:56:36;100957.35;;;24.02;29.53
62926;BME280;55732;52.248;-0.844;2023-04-26T08:59:03;100962.33;;;23.15;30.30
62926;BME280;55732;52.248;-0.844;2023-04-26T09:01:30;100958.92;;;22.27;30.78
62926;BME280;55732;52.248;-0.844;2023-04-26T09:03:56;100966.31;;;21.35;31.87
62926;BME280;55732;52.248;-0.844;2023-04-26T09:06:23;100965.98;;;20.59;32.17
62926;BME280;55732;52.248;-0.844;2023-04-26T09:08:50;100965.33;;;20.07;33.17
62926;BME280;55732;52.248;-0.844;2023-04-26T09:11:17;100967.40;;;19.77;33.71
62926;BME280;55732;52.248;-0.844;2023-04-26T09:13:42;100968.43;;;19.57;33.85
62926;BME280;55732;52.248;-0.844;2023-04-26T09:16:08;100974.52;;;19.56;33.79
62926;BME280;55732;52.248;-0.844;2023-04-26T09:18:34;100975.61;;;19.78;34.04
62926;BME280;55732;52.248;-0.844;2023-04-26T09:21:07;100974.69;;;20.65;33.15
62926;BME280;55732;52.248;-0.844;2023-04-26T09:23:33;100971.94;;;22.33;30.93
62926;BME280;55732;52.248;-0.844;2023-04-26T09:26:19;100964.91;;;23.03;28.61
62926;BME280;55732;52.248;-0.844;2023-04-26T09:28:45;100961.12;;;22.47;27.69
62926;BME280;55732;52.248;-0.844;2023-04-26T09:31:34;100968.02;;;21.46;28.77
62926;BME280;55732;52.248;-0.844;2023-04-26T09:34:00;100967.86;;;20.62;30.67
62926;BME280;55732;52.248;-0.844;2023-04-26T09:36:25;100963.86;;;20.24;31.36
62926;BME280;55732;52.248;-0.844;2023-04-26T09:38:51;100968.90;;;19.69;31.43
62926;BME280;55732;52.248;-0.844;2023-04-26T09:41:17;100973.21;;;18.93;31.31
62926;BME280;55732;52.248;-0.844;2023-04-26T09:43:42;100972.57;;;18.06;32.15
62926;BME280;55732;52.248;-0.844;2023-04-26T09:46:08;100975.02;;;17.57;33.02
62926;BME280;55732;52.248;-0.844;2023-04-26T09:48:34;100981.01;;;17.59;33.29
62926;BME280;55732;52.248;-0.844;2023-04-26T09:56:12;100970.30;;;18.83;32.22
62926;BME280;55732;52.248;-0.844;2023-04-26T09:58:54;100963.30;;;19.26;32.31
62926;BME280;55732;52.248;-0.844;2023-04-26T10:01:23;100959.64;;;19.52;31.98
62926;BME280;55732;52.248;-0.844;2023-04-26T10:03:49;100956.32;;;19.44;31.81
62926;BME280;55732;52.248;-0.844;2023-04-26T10:06:16;100956.22;;;19.24;31.70
62926;BME280;55732;52.248;-0.844;2023-04-26T10:08:42;100956.96;;;18.82;31.90
62926;BME280;55732;52.248;-0.844;2023-04-26T10:11:08;100957.86;;;18.63;32.60
62926;BME280;55732;52.248;-0.844;2023-04-26T10:13:41;100957.08;;;18.32;32.16
62926;BME280;55732;52.248;-0.844;2023-04-26T10:16:07;100954.02;;;17.63;32.45
62926;BME280;55732;52.248;-0.844;2023-04-26T10:18:34;100953.91;;;17.14;32.98
62926;BME280;55732;52.248;-0.844;2023-04-26T10:21:20;100948.09;;;16.88;33.41
62926;BME280;55732;52.248;-0.844;2023-04-26T10:23:48;100942.00;;;16.63;34.14
62926;BME280;55732;52.248;-0.844;2023-04-26T10:26:49;100936.61;;;16.48;34.76
62926;BME280;55732;52.248;-0.844;2023-04-26T10:32:20;100932.52;;;16.39;35.48
62926;BME280;55732;52.248;-0.844;2023-04-26T10:35:08;100935.59;;;16.38;35.80
62926;BME280;55732;52.248;-0.844;2023-04-26T10:37:33;100937.92;;;16.26;35.05
62926;BME280;55732;52.248;-0.844;2023-04-26T10:40:33;100933.55;;;16.05;35.13
62926;BME280;55732;52.248;-0.844;2023-04-26T10:45:34;100931.13;;;15.57;35.46
62926;BME280;55732;52.248;-0.844;2023-04-26T10:55:53;100920.80;;;14.87;37.76
62926;BME280;55732;52.248;-0.844;2023-04-26T10:58:29;100915.77;;;14.92;37.50
62926;BME280;55732;52.248;-0.844;2023-04-26T11:03:33;100903.92;;;15.02;37.29
62926;BME280;55732;52.248;-0.844;2023-04-26T11:05:59;100900.17;;;15.16;37.29
62926;BME280;55732;52.248;-0.844;2023-04-26T11:08:30;100900.87;;;15.52;37.13
62926;BME280;55732;52.248;-0.844;2023-04-26T11:13:26;100903.13;;;15.87;36.46
62926;BME280;55732;52.248;-0.844;2023-04-26T11:15:59;100898.65;;;15.99;35.93
62926;BME280;55732;52.248;-0.844;2023-04-26T11:18:29;100895.50;;;15.96;34.98
62926;BME280;55732;52.248;-0.844;2023-04-26T11:20:55;100893.29;;;15.81;35.47
62926;BME280;55732;52.248;-0.844;2023-04-26T11:23:22;100890.91;;;15.65;35.90
62926;BME280;55732;52.248;-0.844;2023-04-26T11:25:48;100888.63;;;15.52;36.14
62926;BME280;55732;52.248;-0.844;2023-04-26T11:28:13;100892.64;;;15.33;36.92
62926;BME280;55732;52.248;-0.844;2023-04-26T11:30:39;100889.57;;;15.14;37.46
62926;BME280;55732;52.248;-0.844;2023-04-26T11:33:05;100888.30;;;15.04;37.98
62926;BME280;55732;52.248;-0.844;2023-04-26T11:35:34;100889.90;;;15.04;37.54
62926;BME280;55732;52.248;-0.844;2023-04-26T11:38:02;100888.38;;;15.10;37.58
62926;BME280;55732;52.248;-0.844;2023-04-26T11:40:30;100894.30;;;15.18;37.54
62926;BME280;55732;52.248;-0.844;2023-04-26T11:43:00;100895.65;;;15.23;37.39
62926;BME280;55732;52.248;-0.844;2023-04-26T11:45:26;100895.61;;;15.25;37.18
62926;BME280;55732;52.248;-0.844;2023-04-26T11:47:52;100894.02;;;15.13;37.00
62926;BME280;55732;52.248;-0.844;2023-04-26T11:50:18;100893.85;;;15.00;37.23
62926;BME280;55732;52.248;-0.844;2023-04-26T11:52:44;100895.81;;;14.99;37.32
62926;BME280;55732;52.248;-0.844;2023-04-26T11:55:10;100899.62;;;14.94;37.38
62926;BME280;55732;52.248;-0.844;2023-04-26T11:57:36;100896.83;;;14.90;37.86
62926;BME280;55732;52.248;-0.844;2023-04-26T12:00:10;100898.04;;;14.92;38.20
62926;BME280;55732;52.248;-0.844;2023-04-26T12:02:38;100898.92;;;14.93;38.12
62926;BME280;55732;52.248;-0.844;2023-04-26T12:05:05;100897.37;;;14.89;37.83
62926;BME280;55732;52.248;-0.844;2023-04-26T12:07:36;100896.90;;;14.86;37.94
62926;BME280;55732;52.248;-0.844;2023-04-26T12:10:25;100899.20;;;14.86;37.63
62926;BME280;55732;52.248;-0.844;2023-04-26T12:12:52;100900.05;;;14.75;37.49
62926;BME280;55732;52.248;-0.844;2023-04-26T12:15:22;100900.48;;;14.54;38.38
62926;BME280;55732;52.248;-0.844;2023-04-26T12:17:52;100899.02;;;14.44;39.00
62926;BME280;55732;52.248;-0.844;2023-04-26T12:20:25;100894.95;;;14.44;39.14
62926;BME280;55732;52.248;-0.844;2023-04-26T12:23:01;100899.77;;;14.40;38.83
62926;BME280;55732;52.248;-0.844;2023-04-26T12:25:27;100900.51;;;14.21;38.97
62926;BME280;55732;52.248;-0.844;2023-04-26T12:27:53;100897.73;;;13.99;39.34
62926;BME280;55732;52.248;-0.844;2023-04-26T12:30:19;100902.04;;;13.73;40.01
62926;BME280;55732;52.248;-0.844;2023-04-26T12:32:46;100904.71;;;13.50;40.58
62926;BME280;55732;52.248;-0.844;2023-04-26T12:35:12;100902.82;;;13.45;41.25
62926;BME280;55732;52.248;-0.844;2023-04-26T12:37:37;100906.48;;;13.51;41.13
62926;BME280;55732;52.248;-0.844;2023-04-26T12:40:03;100905.64;;;13.47;40.44
62926;BME280;55732;52.248;-0.844;2023-04-26T12:42:30;100907.09;;;13.41;41.08
62926;BME280;55732;52.248;-0.844;2023-04-26T12:44:56;100913.17;;;13.32;41.24
62926;BME280;55732;52.248;-0.844;2023-04-26T12:47:21;100909.48;;;13.25;41.15
62926;BME280;55732;52.248;-0.844;2023-04-26T12:49:47;100914.48;;;13.21;41.15
62926;BME280;55732;52.248;-0.844;2023-04-26T12:52:12;100914.88;;;13.15;41.30
62926;BME280;55732;52.248;-0.844;2023-04-26T12:54:38;100911.31;;;13.13;41.72
62926;BME280;55732;52.248;-0.844;2023-04-26T12:57:04;100913.63;;;13.19;42.06
62926;BME280;55732;52.248;-0.844;2023-04-26T12:59:30;100911.69;;;13.16;42.20
62926;BME280;55732;52.248;-0.844;2023-04-26T13:01:55;100915.22;;;13.18;42.01
62926;BME280;55732;52.248;-0.844;2023-04-26T13:04:21;100911.27;;;13.26;41.97
62926;BME280;55732;52.248;-0.844;2023-04-26T13:06:46;100914.41;;;13.33;41.53